Time;durP1;ratioP1;P1;durP2;ratioP2;P2;SDS_P1;SDS_P2;PMS_P1;PMS_P2;Temp;Humidity;BMP_temperature;BMP_pressure;BME280_temperature;BME280_humidity;BME280_pressure;Samples;Min_cycle;Max_cycle;Signal;HPM_P1;HPM_P2
2023/03/30 00:01:29;;;;;;;5.72;1.98;;;13.50;99.90;;;;;;5071941;28;20112;-46
2023/03/30 00:03:55;;;;;;;7.60;2.10;;;13.60;99.90;;;;;;5071400;28;20029;-47
2023/03/30 00:06:21;;;;;;;7.10;2.17;;;13.70;99.90;;;;;;5071577;28;20599;-46
2023/03/30 00:08:48;;;;;;;8.50;2.50;;;13.60;99.90;;;;;;5071559;28;20086;-47
2023/03/30 00:11:16;;;;;;;5.30;2.28;;;13.60;99.90;;;;;;5071638;28;20133;-49
2023/03/30 00:13:42;;;;;;;5.90;1.70;;;13.70;99.90;;;;;;5071313;28;20443;-50
2023/03/30 00:16:11;;;;;;;3.42;1.70;;;13.70;99.90;;;;;;5071617;28;20392;-49
2023/03/30 00:18:38;;;;;;;5.43;1.90;;;13.80;99.90;;;;;;5071249;28;20059;-49
2023/03/30 00:21:06;;;;;;;4.43;2.03;;;13.80;99.90;;;;;;5071444;28;20107;-49
2023/03/30 00:23:32;;;;;;;7.65;1.88;;;13.70;99.90;;;;;;5053105;28;20400;-49
2023/03/30 00:25:58;;;;;;;8.43;2.20;;;13.80;99.90;;;;;;5071409;28;20039;-52
2023/03/30 00:28:25;;;;;;;5.65;2.10;;;13.70;99.90;;;;;;5071188;28;20036;-50
2023/03/30 00:30:52;;;;;;;5.65;1.95;;;13.70;99.90;;;;;;5053309;28;20123;-50
2023/03/30 00:33:19;;;;;;;9.57;2.00;;;13.70;99.90;;;;;;5070955;28;20024;-48
2023/03/30 00:35:53;;;;;;;8.05;2.13;;;13.70;99.90;;;;;;5071059;28;20036;-49
2023/03/30 00:38:20;;;;;;;5.38;1.77;;;13.70;99.90;;;;;;5052907;28;20032;-50
2023/03/30 00:40:54;;;;;;;6.65;2.00;;;13.70;99.90;;;;;;5071150;28;20074;-48
2023/03/30 00:43:20;;;;;;;6.00;1.98;;;13.70;99.90;;;;;;5052897;28;20031;-53
2023/03/30 00:45:46;;;;;;;7.05;1.77;;;13.70;99.90;;;;;;5071015;28;20089;-49
2023/03/30 00:48:22;;;;;;;4.95;1.60;;;13.70;99.90;;;;;;5070109;28;20082;-49
2023/03/30 00:51:17;;;;;;;7.05;2.03;;;13.60;99.90;;;;;;5071149;28;20392;-50
2023/03/30 00:53:47;;;;;;;7.38;1.70;;;13.60;99.90;;;;;;5068450;28;20465;-47
2023/03/30 00:56:16;;;;;;;4.57;1.80;;;13.60;99.90;;;;;;5070882;28;20041;-49
2023/03/30 00:58:43;;;;;;;7.45;1.75;;;13.60;99.90;;;;;;5052597;28;20496;-47
2023/03/30 01:01:13;;;;;;;7.30;2.00;;;13.60;99.90;;;;;;5070961;28;20036;-48
2023/03/30 01:03:44;;;;;;;6.30;1.92;;;13.50;99.90;;;;;;5084395;22;20049;-51
2023/03/30 01:06:11;;;;;;;4.35;2.15;;;13.50;99.90;;;;;;5070705;28;20024;-52
2023/03/30 01:08:37;;;;;;;5.55;1.88;;;13.50;99.90;;;;;;5070469;28;20040;-52
2023/03/30 01:11:05;;;;;;;7.45;2.15;;;13.40;99.90;;;;;;5052681;28;20118;-52
2023/03/30 01:13:38;;;;;;;7.07;2.00;;;13.40;99.90;;;;;;5070327;28;20028;-52
2023/03/30 01:16:17;;;;;;;7.35;1.90;;;13.40;99.90;;;;;;5070504;28;20103;-52
2023/03/30 01:19:21;;;;;;;7.53;2.10;;;13.30;99.90;;;;;;5052127;28;20028;-50
2023/03/30 01:21:54;;;;;;;5.80;1.90;;;13.30;99.90;;;;;;5070458;28;20063;-52
2023/03/30 01:24:47;;;;;;;7.55;2.17;;;13.40;99.90;;;;;;5070338;28;20021;-48
2023/03/30 01:27:50;;;;;;;5.10;2.08;;;13.40;99.90;;;;;;5070268;28;20032;-50
2023/03/30 01:30:50;;;;;;;3.78;1.70;;;13.60;99.90;;;;;;5052341;28;20029;-52
2023/03/30 01:33:47;;;;;;;8.40;2.20;;;13.70;99.90;;;;;;5070353;28;20075;-51
2023/03/30 01:36:38;;;;;;;9.93;2.30;;;13.80;99.90;;;;;;5070423;28;20039;-54
2023/03/30 01:39:29;;;;;;;5.28;1.92;;;13.80;99.90;;;;;;5052324;28;20560;-53
2023/03/30 01:42:29;;;;;;;4.97;1.80;;;13.80;99.90;;;;;;5070360;28;20033;-51
2023/03/30 01:44:55;;;;;;;7.10;1.95;;;13.80;99.90;;;;;;5070195;28;20507;-51
2023/03/30 01:47:24;;;;;;;6.68;2.10;;;13.90;99.90;;;;;;5070043;28;20028;-52
2023/03/30 01:50:02;;;;;;;6.32;1.98;;;14.00;99.90;;;;;;5070312;28;20060;-51
2023/03/30 01:52:40;;;;;;;6.35;2.17;;;14.00;99.90;;;;;;5052078;28;20039;-51
2023/03/30 01:55:17;;;;;;;7.60;2.03;;;14.00;99.90;;;;;;5069901;28;20040;-50
2023/03/30 01:57:57;;;;;;;6.85;2.08;;;14.00;99.90;;;;;;5069939;28;20029;-52
2023/03/30 02:00:23;;;;;;;;;;;13.90;99.90;;;;;;5072653;28;20086;-53
2023/03/30 02:03:05;;;;;;;7.30;2.00;;;14.00;99.90;;;;;;5073980;28;20291;-52
2023/03/30 02:05:33;;;;;;;7.35;2.25;;;14.00;99.90;;;;;;5073737;28;20485;-54
2023/03/30 02:08:07;;;;;;;8.20;2.45;;;14.00;99.90;;;;;;5073741;28;20111;-52
2023/03/30 02:10:35;;;;;;;5.30;1.67;;;14.00;99.90;;;;;;5073873;28;20032;-54
2023/03/30 02:13:02;;;;;;;5.72;2.22;;;14.10;99.90;;;;;;5073783;28;20100;-51
2023/03/30 02:15:35;;;;;;;6.55;1.70;;;14.20;99.90;;;;;;5073540;28;20205;-53
2023/03/30 02:18:01;;;;;;;8.52;2.38;;;14.20;99.90;;;;;;5055488;28;20028;-54
2023/03/30 02:20:28;;;;;;;7.80;2.15;;;14.20;99.90;;;;;;5055728;28;20024;-54
2023/03/30 02:22:56;;;;;;;7.35;2.05;;;14.30;99.90;;;;;;5073530;28;20108;-54
2023/03/30 02:25:22;;;;;;;5.93;2.00;;;14.20;99.90;;;;;;5073472;28;20104;-51
2023/03/30 02:27:48;;;;;;;6.85;2.40;;;14.20;99.90;;;;;;5073195;28;20039;-54
2023/03/30 02:30:14;;;;;;;9.45;2.10;;;14.30;99.90;;;;;;5055505;28;20123;-53
2023/03/30 02:32:44;;;;;;;6.40;2.22;;;14.30;99.90;;;;;;5055380;28;20491;-53
2023/03/30 02:35:49;;;;;;;9.07;2.35;;;14.30;99.90;;;;;;5055307;28;20037;-53
2023/03/30 02:38:41;;;;;;;7.07;2.22;;;14.30;99.90;;;;;;5055261;28;20167;-53
2023/03/30 02:41:28;;;;;;;8.00;2.28;;;14.40;99.90;;;;;;5073374;28;20074;-53
2023/03/30 02:44:03;;;;;;;7.10;1.90;;;14.40;99.90;;;;;;5055046;28;20025;-50
2023/03/30 02:46:54;;;;;;;4.13;1.75;;;14.50;99.90;;;;;;5054979;28;20025;-53
2023/03/30 02:49:42;;;;;;;8.32;2.38;;;14.40;99.90;;;;;;5072961;28;20040;-53
2023/03/30 02:52:40;;;;;;;8.10;2.13;;;14.40;99.90;;;;;;5055034;28;20028;-50
2023/03/30 02:55:24;;;;;;;6.00;1.67;;;14.30;99.90;;;;;;5054967;28;20119;-53
2023/03/30 02:58:22;;;;;;;8.05;2.03;;;14.20;99.90;;;;;;5054479;28;20032;-52
2023/03/30 03:01:31;;;;;;;8.27;2.20;;;14.20;99.90;;;;;;5072461;28;20178;-50
2023/03/30 03:04:05;;;;;;;8.75;2.00;;;14.20;99.90;;;;;;5035729;28;20515;-53
2023/03/30 03:06:41;;;;;;;6.65;1.70;;;14.00;99.90;;;;;;5054730;28;20078;-53
2023/03/30 03:09:07;;;;;;;8.57;1.88;;;14.00;99.90;;;;;;5054633;28;20132;-52
2023/03/30 03:11:34;;;;;;;7.57;2.20;;;13.90;99.90;;;;;;5054054;28;20029;-53
2023/03/30 03:14:00;;;;;;;4.82;1.70;;;13.80;99.90;;;;;;5052365;28;20032;-53
2023/03/30 03:16:28;;;;;;;8.40;2.30;;;13.80;99.90;;;;;;5052239;28;20028;-51
2023/03/30 03:19:07;;;;;;;5.63;2.00;;;13.80;99.90;;;;;;5053464;28;20365;-51
2023/03/30 03:21:33;;;;;;;7.30;2.03;;;13.70;99.90;;;;;;5053557;28;20063;-52
2023/03/30 03:23:59;;;;;;;10.93;2.15;;;13.70;99.90;;;;;;5048868;28;20021;-49
2023/03/30 03:26:39;;;;;;;4.38;1.35;;;13.80;99.90;;;;;;5050874;28;20035;-52
2023/03/30 03:29:05;;;;;;;7.53;1.90;;;13.80;99.90;;;;;;5053012;28;20440;-51
2023/03/30 03:31:31;;;;;;;8.18;1.90;;;13.80;99.90;;;;;;5052253;28;20035;-51
2023/03/30 03:33:58;;;;;;;6.97;2.30;;;13.90;99.90;;;;;;5052649;28;20064;-50
2023/03/30 03:36:42;;;;;;;9.70;1.80;;;13.80;99.90;;;;;;5052267;28;20119;-51
2023/03/30 03:39:08;;;;;;;7.57;1.85;;;13.80;99.90;;;;;;5051923;28;20029;-51
2023/03/30 03:41:36;;;;;;;9.15;2.50;;;13.90;99.90;;;;;;5052582;28;20051;-50
2023/03/30 03:44:01;;;;;;;10.45;2.40;;;13.80;99.90;;;;;;5070047;28;20097;-52
2023/03/30 03:46:27;;;;;;;8.35;2.22;;;13.80;99.90;;;;;;5069537;28;20098;-51
2023/03/30 03:48:53;;;;;;;6.82;2.38;;;13.80;99.90;;;;;;5052260;28;20071;-51
2023/03/30 03:51:19;;;;;;;5.28;2.10;;;13.80;99.90;;;;;;5052634;28;20524;-50
2023/03/30 03:53:47;;;;;;;5.93;1.95;;;13.90;99.90;;;;;;5069247;28;20056;-51
2023/03/30 03:56:13;;;;;;;6.97;1.88;;;13.90;99.90;;;;;;5052065;28;20288;-53
2023/03/30 03:58:39;;;;;;;7.65;1.85;;;13.80;99.90;;;;;;5069702;28;20051;-53
2023/03/30 04:01:06;;;;;;;5.70;1.90;;;13.90;99.90;;;;;;5052125;28;20468;-54
2023/03/30 04:03:31;;;;;;;7.28;1.85;;;13.90;99.90;;;;;;5069995;28;20097;-50
2023/03/30 04:05:59;;;;;;;9.95;2.15;;;13.90;99.90;;;;;;5052343;28;20120;-53
2023/03/30 04:08:25;;;;;;;6.30;1.85;;;13.90;99.90;;;;;;5052009;28;20033;-50
2023/03/30 04:10:52;;;;;;;5.75;1.80;;;13.90;99.90;;;;;;5051485;28;20029;-53
2023/03/30 04:13:24;;;;;;;5.50;1.65;;;13.90;99.90;;;;;;5052084;28;20085;-53
2023/03/30 04:16:17;;;;;;;6.35;1.75;;;13.90;99.90;;;;;;5051899;28;20459;-52
2023/03/30 04:19:03;;;;;;;6.15;1.48;;;13.90;99.90;;;;;;5051856;28;20119;-52
2023/03/30 04:21:49;;;;;;;7.47;1.80;;;14.00;99.90;;;;;;5052089;28;20465;-52
2023/03/30 04:24:34;;;;;;;8.50;2.13;;;14.00;99.90;;;;;;5067921;28;20033;-53
2023/03/30 04:27:18;;;;;;;12.65;2.33;;;13.90;99.90;;;;;;5069766;28;20043;-53
2023/03/30 04:30:23;;;;;;;9.65;2.40;;;14.00;99.90;;;;;;4995438;28;20426;-50
2023/03/30 04:33:21;;;;;;;7.43;2.13;;;14.10;99.90;;;;;;4985631;28;20038;-53
2023/03/30 04:35:54;;;;;;;9.43;2.05;;;14.20;99.90;;;;;;5035545;28;20076;-53
2023/03/30 04:38:57;;;;;;;8.05;2.20;;;14.10;99.90;;;;;;5050704;28;20103;-53
2023/03/30 04:41:44;;;;;;;7.57;2.00;;;14.10;99.90;;;;;;5069756;28;20042;-53
2023/03/30 04:44:48;;;;;;;7.78;2.17;;;14.10;99.90;;;;;;5047830;28;20032;-52
2023/03/30 04:47:52;;;;;;;9.07;1.70;;;14.00;99.90;;;;;;5007125;28;20038;-54
2023/03/30 04:50:50;;;;;;;6.40;1.80;;;14.10;99.90;;;;;;5006994;28;20038;-52
2023/03/30 04:53:42;;;;;;;10.63;1.80;;;14.10;99.90;;;;;;5044705;28;20037;-53
2023/03/30 04:56:16;;;;;;;7.47;1.98;;;14.00;99.90;;;;;;5069464;28;20148;-54
2023/03/30 04:58:54;;;;;;;8.07;2.20;;;14.10;99.90;;;;;;5051199;28;20032;-55
2023/03/30 05:01:21;;;;;;;5.80;1.45;;;14.10;99.90;;;;;;5069303;28;20036;-52
2023/03/30 05:04:05;;;;;;;9.23;1.83;;;14.10;99.90;;;;;;5050877;28;20228;-54
2023/03/30 05:06:40;;;;;;;6.55;2.03;;;14.10;99.90;;;;;;5069314;28;20040;-53
2023/03/30 05:09:12;;;;;;;8.98;1.80;;;14.20;99.90;;;;;;5068856;28;20473;-49
2023/03/30 05:11:53;;;;;;;9.05;2.10;;;14.20;99.90;;;;;;5051219;28;20178;-53
2023/03/30 05:14:45;;;;;;;11.13;2.10;;;14.10;99.90;;;;;;5065628;28;20430;-54
2023/03/30 05:17:33;;;;;;;10.82;3.42;;;14.20;99.90;;;;;;5069060;28;20412;-51
2023/03/30 05:20:19;;;;;;;11.85;5.57;;;14.10;99.90;;;;;;5050838;28;20043;-52
2023/03/30 05:23:04;;;;;;;7.70;2.65;;;14.00;99.90;;;;;;5051240;28;20111;-51
2023/03/30 05:26:03;;;;;;;12.80;3.22;;;14.00;99.90;;;;;;5034780;28;20028;-53
2023/03/30 05:28:55;;;;;;;14.50;2.75;;;13.90;99.90;;;;;;5050034;28;20450;-54
2023/03/30 05:31:24;;;;;;;9.57;2.58;;;14.00;99.90;;;;;;5068762;28;20052;-55
2023/03/30 05:34:16;;;;;;;12.43;2.20;;;14.00;99.90;;;;;;5065480;28;20040;-52
2023/03/30 05:37:00;;;;;;;13.63;2.45;;;14.00;99.90;;;;;;5073164;28;20047;-53
2023/03/30 05:39:40;;;;;;;9.45;2.63;;;14.10;99.90;;;;;;5054238;28;20563;-54
2023/03/30 05:42:32;;;;;;;9.00;2.60;;;14.20;99.90;;;;;;5073007;28;20501;-53
2023/03/30 05:45:09;;;;;;;10.52;3.15;;;14.20;99.90;;;;;;5054396;28;20020;-53
2023/03/30 05:48:01;;;;;;;11.32;3.30;;;14.30;99.90;;;;;;5054773;28;20042;-53
2023/03/30 05:50:47;;;;;;;12.10;3.03;;;14.40;99.90;;;;;;5040844;28;20046;-53
2023/03/30 05:53:30;;;;;;;9.93;3.50;;;14.50;99.90;;;;;;5053678;28;20052;-56
2023/03/30 05:56:02;;;;;;;8.32;3.10;;;14.60;99.90;;;;;;5072253;28;20032;-56
2023/03/30 05:58:48;;;;;;;13.85;2.78;;;14.60;99.90;;;;;;5070549;28;20078;-56
2023/03/30 06:01:37;;;;;;;21.70;5.03;;;14.60;99.90;;;;;;5033631;28;20036;-55
2023/03/30 06:04:03;;;;;;;8.13;2.70;;;14.70;99.90;;;;;;5070337;28;20128;-55
2023/03/30 06:06:30;;;;;;;10.15;2.65;;;14.70;99.90;;;;;;5070621;28;20445;-56
2023/03/30 06:08:56;;;;;;;7.78;2.47;;;14.70;99.90;;;;;;5071252;28;20098;-57
2023/03/30 06:11:24;;;;;;;14.18;3.20;;;14.80;99.90;;;;;;5070238;28;20048;-50
2023/03/30 06:13:59;;;;;;;10.25;3.13;;;14.90;99.90;;;;;;5070246;28;20088;-48
2023/03/30 06:16:27;;;;;;;10.45;3.47;;;14.90;99.90;;;;;;5069982;28;20039;-51
2023/03/30 06:18:54;;;;;;;12.85;2.92;;;14.90;99.90;;;;;;5070608;28;20082;-51
2023/03/30 06:21:20;;;;;;;10.13;2.80;;;14.90;99.90;;;;;;5070837;28;20511;-49
2023/03/30 06:24:19;;;;;;;10.60;2.85;;;14.90;99.90;;;;;;5069569;28;20024;-51
2023/03/30 06:26:47;;;;;;;8.02;2.05;;;14.80;99.90;;;;;;5070074;28;20055;-49
2023/03/30 06:29:13;;;;;;;6.88;2.05;;;14.80;99.90;;;;;;5070623;28;20028;-49
2023/03/30 06:31:40;;;;;;;6.60;1.60;;;14.80;99.90;;;;;;5070510;28;20062;-53
2023/03/30 06:34:25;;;;;;;3.88;1.33;;;14.80;99.90;;;;;;5071696;28;20118;-53
2023/03/30 06:36:52;;;;;;;5.60;1.52;;;14.70;99.90;;;;;;5069936;28;20055;-53
2023/03/30 06:39:21;;;;;;;5.75;1.45;;;14.70;99.90;;;;;;5069495;28;20120;-52
2023/03/30 06:41:46;;;;;;;7.47;1.80;;;14.70;99.90;;;;;;5070036;28;20517;-53
2023/03/30 06:44:50;;;;;;;6.45;1.50;;;14.70;99.90;;;;;;5057497;28;20032;-52
2023/03/30 06:47:18;;;;;;;10.50;1.67;;;14.70;99.90;;;;;;5051617;28;20035;-53
2023/03/30 06:49:44;;;;;;;6.32;1.48;;;14.70;99.90;;;;;;5071623;28;20373;-52
2023/03/30 06:52:48;;;;;;;6.40;1.70;;;14.70;99.90;;;;;;5062721;28;20518;-53
2023/03/30 06:55:14;;;;;;;7.63;1.67;;;14.70;99.90;;;;;;5052381;28;20036;-52
2023/03/30 06:57:40;;;;;;;5.20;1.60;;;14.70;99.90;;;;;;5052986;28;20566;-52
2023/03/30 07:00:12;;;;;;;4.80;1.50;;;14.60;99.90;;;;;;5047493;28;20055;-51
2023/03/30 07:02:41;;;;;;;8.43;2.67;;;14.60;99.90;;;;;;5048253;28;20119;-49
2023/03/30 07:05:14;;;;;;;7.47;1.77;;;14.60;99.90;;;;;;5050085;28;20029;-53
2023/03/30 07:08:17;;;;;;;6.82;2.00;;;14.70;99.90;;;;;;5004801;28;20465;-51
2023/03/30 07:10:50;;;;;;;6.15;2.10;;;14.80;99.90;;;;;;5039306;28;20090;-54
2023/03/30 07:13:17;;;;;;;7.57;2.35;;;14.80;99.90;;;;;;5049948;28;20105;-49
2023/03/30 07:15:46;;;;;;;8.27;2.70;;;14.80;99.90;;;;;;5051405;28;20036;-53
2023/03/30 07:18:12;;;;;;;8.45;2.45;;;15.00;99.90;;;;;;5067637;28;20043;-51
2023/03/30 07:20:38;;;;;;;12.60;2.70;;;15.10;99.90;;;;;;5051135;28;20123;-50
2023/03/30 07:23:15;;;;;;;8.73;2.47;;;15.10;99.90;;;;;;5050061;28;20101;-51
2023/03/30 07:25:44;;;;;;;7.57;2.08;;;15.10;99.90;;;;;;5048968;28;20039;-48
2023/03/30 07:28:15;;;;;;;6.30;1.60;;;15.00;99.90;;;;;;5049508;28;20089;-49
2023/03/30 07:30:41;;;;;;;5.40;1.95;;;15.00;99.90;;;;;;5066673;28;20556;-49
2023/03/30 07:33:08;;;;;;;7.70;1.95;;;15.00;99.90;;;;;;5049702;28;20111;-50
2023/03/30 07:35:34;;;;;;;5.00;1.80;;;14.90;99.90;;;;;;5049658;28;20028;-48
2023/03/30 07:38:04;;;;;;;9.93;2.08;;;14.80;99.90;;;;;;5049175;28;20489;-48
2023/03/30 07:40:36;;;;;;;6.05;2.00;;;14.70;99.90;;;;;;5048112;28;20127;-49
2023/03/30 07:43:04;;;;;;;6.65;1.92;;;14.60;99.90;;;;;;5049068;28;20028;-50
2023/03/30 07:45:30;;;;;;;4.63;1.77;;;14.60;99.90;;;;;;5048949;28;20139;-51
2023/03/30 07:47:56;;;;;;;5.30;1.40;;;14.50;99.90;;;;;;5049252;28;20029;-50
2023/03/30 07:50:24;;;;;;;5.82;2.00;;;14.50;99.90;;;;;;5049812;28;20029;-53
2023/03/30 07:52:51;;;;;;;7.75;2.53;;;14.30;99.90;;;;;;5036374;28;20060;-57
2023/03/30 07:55:17;;;;;;;7.07;2.55;;;14.30;99.90;;;;;;5051311;28;20035;-57
2023/03/30 07:57:50;;;;;;;6.22;2.63;;;14.30;99.90;;;;;;5051871;28;20063;-57
2023/03/30 08:00:16;;;;;;;7.13;2.53;;;14.30;99.90;;;;;;5051847;28;20056;-57
2023/03/30 08:03:02;;;;;;;7.40;2.25;;;14.30;99.90;;;;;;5066695;28;20512;-58
2023/03/30 08:05:28;;;;;;;11.38;2.40;;;14.40;99.90;;;;;;5049225;28;20029;-58
2023/03/30 08:08:06;;;;;;;9.52;2.20;;;14.50;99.90;;;;;;5048621;28;20048;-57
2023/03/30 08:10:34;;;;;;;9.75;2.35;;;14.50;99.90;;;;;;5048211;28;20106;-58
2023/03/30 08:13:00;;;;;;;7.20;2.20;;;14.60;99.90;;;;;;5048947;28;20492;-58
2023/03/30 08:15:26;;;;;;;8.32;2.30;;;14.60;99.90;;;;;;5048065;28;20531;-58
2023/03/30 08:17:52;;;;;;;7.97;2.00;;;14.70;99.90;;;;;;5066535;28;20064;-58
2023/03/30 08:20:18;;;;;;;14.00;2.15;;;14.70;99.90;;;;;;5067203;28;20028;-57
2023/03/30 08:22:44;;;;;;;13.07;2.28;;;14.80;99.90;;;;;;5066497;28;20028;-57
2023/03/30 08:25:10;;;;;;;13.93;3.15;;;14.80;99.90;;;;;;5065704;28;20028;-58
2023/03/30 08:27:36;;;;;;;11.63;2.17;;;14.80;99.90;;;;;;5066277;28;20029;-59
2023/03/30 08:30:03;;;;;;;6.90;1.67;;;14.90;99.90;;;;;;5066906;28;20500;-60
2023/03/30 08:32:28;;;;;;;6.80;1.70;;;14.80;99.90;;;;;;5066373;28;20036;-61
2023/03/30 08:34:54;;;;;;;7.82;1.80;;;14.80;99.90;;;;;;5066299;28;20082;-60
2023/03/30 08:37:20;;;;;;;7.30;1.88;;;14.90;99.90;;;;;;5065766;28;20700;-59
2023/03/30 08:39:45;;;;;;;7.07;1.70;;;15.10;99.90;;;;;;5064398;28;20051;-59
2023/03/30 08:42:42;;;;;;;6.43;1.58;;;15.10;99.90;;;;;;5065519;28;20127;-59
2023/03/30 08:45:10;;;;;;;10.38;1.90;;;15.10;99.90;;;;;;5065635;28;20055;-57
2023/03/30 08:47:40;;;;;;;12.85;1.85;;;15.10;99.90;;;;;;5066059;28;20032;-55
2023/03/30 08:50:13;;;;;;;5.88;1.50;;;15.50;99.90;;;;;;5065966;28;20093;-55
2023/03/30 08:52:40;;;;;;;7.72;1.50;;;16.00;99.90;;;;;;5066742;28;20093;-54
2023/03/30 08:55:45;;;;;;;5.68;1.80;;;16.60;99.90;;;;;;5065076;28;20039;-53
2023/03/30 08:58:15;;;;;;;9.02;1.60;;;16.90;99.90;;;;;;5055933;28;20037;-50
2023/03/30 09:00:40;;;;;;;9.13;2.78;;;17.10;99.90;;;;;;5049088;28;20095;-54
2023/03/30 09:03:28;;;;;;;9.60;1.60;;;17.00;99.90;;;;;;5068632;28;20683;-51
2023/03/30 09:06:08;;;;;;;11.88;2.58;;;16.70;99.90;;;;;;5069527;28;20106;-53
2023/03/30 09:08:35;;;;;;;9.32;1.70;;;16.70;99.90;;;;;;5070360;28;20439;-52
2023/03/30 09:11:06;;;;;;;8.93;2.13;;;16.60;99.90;;;;;;5070096;28;20111;-50
2023/03/30 09:13:36;;;;;;;8.68;2.30;;;16.40;99.90;;;;;;5070470;28;20036;-51
2023/03/30 09:16:19;;;;;;;13.93;2.08;;;16.50;99.90;;;;;;5070669;28;20530;-52
2023/03/30 09:18:51;;;;;;;7.93;1.90;;;16.40;99.90;;;;;;5069684;28;20564;-50
2023/03/30 09:21:20;;;;;;;9.90;2.33;;;16.20;99.90;;;;;;5070523;28;20426;-49
2023/03/30 09:23:46;;;;;;;9.27;2.13;;;16.10;99.90;;;;;;5070311;28;20036;-51
2023/03/30 09:26:50;;;;;;;11.20;2.47;;;16.00;99.90;;;;;;5070503;28;20033;-50
2023/03/30 09:29:24;;;;;;;7.78;2.10;;;15.80;99.90;;;;;;5008108;28;20512;-49
2023/03/30 09:31:53;;;;;;;15.30;2.00;;;15.70;99.90;;;;;;5008434;28;20048;-52
2023/03/30 09:34:45;;;;;;;8.23;1.67;;;15.50;99.90;;;;;;5041613;28;20044;-52
2023/03/30 09:37:12;;;;;;;10.85;2.15;;;15.50;99.90;;;;;;5070275;28;20099;-51
2023/03/30 09:39:40;;;;;;;10.02;1.80;;;15.50;99.90;;;;;;5070224;28;20481;-53
2023/03/30 09:42:43;;;;;;;9.23;1.77;;;15.50;99.90;;;;;;5070483;28;20028;-53
2023/03/30 09:45:09;;;;;;;10.60;2.03;;;15.50;99.90;;;;;;5070272;28;20115;-53
2023/03/30 09:47:41;;;;;;;11.18;1.77;;;15.40;99.90;;;;;;5070266;28;20116;-54
2023/03/30 09:50:27;;;;;;;9.07;1.77;;;15.30;99.90;;;;;;5070223;28;20036;-50
2023/03/30 09:53:00;;;;;;;10.93;1.75;;;15.20;99.90;;;;;;5070405;28;20037;-53
2023/03/30 09:55:27;;;;;;;8.27;1.60;;;14.80;99.90;;;;;;5069986;28;20090;-53
2023/03/30 09:58:08;;;;;;;9.63;1.77;;;14.10;99.90;;;;;;5070127;28;20477;-50
2023/03/30 10:00:34;;;;;;;10.85;2.00;;;13.60;99.90;;;;;;5070105;28;20032;-52
2023/03/30 10:03:02;;;;;;;12.65;1.83;;;13.20;99.90;;;;;;5070075;28;20091;-52
2023/03/30 10:05:30;;;;;;;9.93;1.97;;;13.00;99.90;;;;;;5069969;28;20107;-52
2023/03/30 10:08:18;;;;;;;10.35;1.95;;;12.90;99.90;;;;;;5069938;28;21091;-51
2023/03/30 10:10:44;;;;;;;8.25;2.15;;;13.00;99.90;;;;;;5070139;28;20033;-52
2023/03/30 10:13:18;;;;;;;11.43;2.15;;;13.10;99.90;;;;;;5070075;28;20099;-51
2023/03/30 10:15:47;;;;;;;8.90;2.42;;;13.20;99.90;;;;;;5070301;28;20055;-50
2023/03/30 10:18:41;;;;;;;13.70;2.10;;;13.30;99.90;;;;;;5069872;28;20032;-49
2023/03/30 10:21:13;;;;;;;12.73;1.60;;;13.50;99.90;;;;;;5071571;28;20107;-53
2023/03/30 10:23:43;;;;;;;11.40;2.40;;;13.60;99.90;;;;;;5073708;28;20048;-53
2023/03/30 10:26:18;;;;;;;10.85;1.95;;;13.70;99.90;;;;;;5073984;28;20078;-53
2023/03/30 10:28:55;;;;;;;11.07;2.15;;;14.00;99.90;;;;;;5073567;28;20047;-50
2023/03/30 10:31:24;;;;;;;13.98;1.90;;;14.30;99.90;;;;;;5073600;28;20032;-51
2023/03/30 10:33:58;;;;;;;9.80;2.38;;;14.60;99.90;;;;;;5073242;28;20035;-51
2023/03/30 10:36:30;;;;;;;12.27;2.35;;;14.80;99.90;;;;;;5073395;28;20032;-51
2023/03/30 10:39:15;;;;;;;10.23;2.15;;;14.90;99.90;;;;;;5073376;28;20040;-51
2023/03/30 10:41:41;;;;;;;9.95;2.42;;;15.10;99.90;;;;;;5073454;28;20086;-53
2023/03/30 10:44:21;;;;;;;11.70;2.20;;;15.20;99.90;;;;;;5073042;28;20528;-54
2023/03/30 10:46:49;;;;;;;15.68;2.78;;;15.60;99.90;;;;;;5073129;28;20470;-54
2023/03/30 10:49:39;;;;;;;10.38;2.03;;;16.00;99.90;;;;;;5073393;28;20041;-51
2023/03/30 10:52:23;;;;;;;9.77;2.38;;;16.40;99.90;;;;;;5073254;28;20047;-52
2023/03/30 10:54:59;;;;;;;8.85;2.10;;;17.10;99.90;;;;;;5073373;28;20039;-54
2023/03/30 10:57:40;;;;;;;9.80;2.20;;;17.30;99.90;;;;;;5072924;28;20033;-52
2023/03/30 11:00:18;;;;;;;13.30;2.13;;;17.20;99.90;;;;;;5073171;28;20107;-52
2023/03/30 11:02:47;;;;;;;9.02;1.85;;;17.40;99.90;;;;;;5072940;28;20174;-53
2023/03/30 11:05:19;;;;;;;12.38;2.40;;;18.00;99.90;;;;;;5072754;28;20041;-53
2023/03/30 11:07:55;;;;;;;11.50;2.55;;;18.60;99.90;;;;;;5073017;28;20620;-53
2023/03/30 11:10:30;;;;;;;12.88;2.30;;;19.00;99.90;;;;;;5072938;28;20032;-53
2023/03/30 11:13:10;;;;;;;7.13;2.00;;;19.10;99.90;;;;;;5072765;28;20113;-54
2023/03/30 11:15:50;;;;;;;12.15;2.33;;;18.30;99.90;;;;;;5072411;28;20440;-51
2023/03/30 11:18:39;;;;;;;10.52;1.98;;;17.90;99.90;;;;;;5072339;28;20036;-52
2023/03/30 11:21:10;;;;;;;;;;;17.60;99.90;;;;;;5073333;28;20031;-53
2023/03/30 11:23:53;;;;;;;9.40;2.10;;;17.70;99.90;;;;;;5072425;28;20022;-53
2023/03/30 11:26:34;;;;;;;14.65;2.40;;;17.80;99.90;;;;;;5072500;28;20031;-54
2023/03/30 11:29:38;;;;;;;11.45;2.45;;;18.00;99.90;;;;;;5072658;28;20445;-54
2023/03/30 11:32:19;;;;;;;14.77;2.33;;;18.10;99.90;;;;;;5071992;28;20123;-53
2023/03/30 11:34:56;;;;;;;9.93;2.33;;;17.40;99.90;;;;;;5072329;28;20396;-51
2023/03/30 11:37:56;;;;;;;13.60;2.33;;;17.00;99.90;;;;;;5072123;28;20039;-52
2023/03/30 11:40:26;;;;;;;9.43;2.10;;;16.90;99.90;;;;;;5048748;28;20048;-53
2023/03/30 11:42:52;;;;;;;10.70;2.20;;;16.80;99.90;;;;;;5072482;28;20389;-53
2023/03/30 11:45:42;;;;;;;10.55;2.00;;;17.20;99.90;;;;;;5072262;28;20071;-53
2023/03/30 11:48:37;;;;;;;10.68;2.58;;;17.40;99.90;;;;;;5071996;28;20036;-53
2023/03/30 11:51:40;;;;;;;11.05;2.20;;;17.40;99.90;;;;;;5071932;28;20090;-52
2023/03/30 11:54:34;;;;;;;9.95;2.30;;;17.90;99.90;;;;;;5071820;28;20039;-50
2023/03/30 11:57:12;;;;;;;9.95;2.40;;;18.10;99.90;;;;;;5071720;28;20025;-54
2023/03/30 12:00:08;;;;;;;10.15;2.03;;;17.90;99.90;;;;;;5071992;28;20052;-53
2023/03/30 12:03:00;;;;;;;10.98;2.30;;;17.60;99.90;;;;;;5071541;28;20036;-53
2023/03/30 12:05:32;;;;;;;11.00;2.08;;;17.30;99.90;;;;;;5071562;28;20115;-53
2023/03/30 12:08:18;;;;;;;10.57;1.77;;;17.00;99.90;;;;;;5071504;28;20496;-53
2023/03/30 12:10:50;;;;;;;9.93;2.20;;;17.10;99.90;;;;;;5040074;28;20075;-53
2023/03/30 12:13:18;;;;;;;8.70;1.85;;;17.20;99.90;;;;;;5071576;28;20032;-53
2023/03/30 12:15:48;;;;;;;10.88;2.03;;;17.20;99.90;;;;;;5071543;28;20060;-52
2023/03/30 12:18:23;;;;;;;10.50;1.85;;;17.20;99.90;;;;;;5071133;28;20403;-52
2023/03/30 12:20:56;;;;;;;9.57;1.55;;;17.10;99.90;;;;;;5071253;28;20020;-49
2023/03/30 12:23:32;;;;;;;8.45;1.65;;;16.70;99.90;;;;;;5071366;28;20079;-52
2023/03/30 12:26:23;;;;;;;6.55;1.45;;;16.40;99.90;;;;;;5071446;28;20024;-53
2023/03/30 12:28:51;;;;;;;8.20;1.73;;;16.20;99.90;;;;;;5071457;28;20068;-53
2023/03/30 12:31:18;;;;;;;7.47;2.15;;;16.30;99.90;;;;;;5071265;28;20036;-52
2023/03/30 12:33:48;;;;;;;11.35;1.75;;;16.50;99.90;;;;;;5070966;28;20100;-52
2023/03/30 12:36:30;;;;;;;10.63;2.53;;;16.30;99.90;;;;;;5071207;28;20079;-52
2023/03/30 12:39:01;;;;;;;8.63;1.50;;;15.90;99.90;;;;;;5071050;28;20234;-52
2023/03/30 12:41:28;;;;;;;8.40;1.88;;;15.60;99.90;;;;;;5071298;28;20031;-49
2023/03/30 12:44:13;;;;;;;7.60;1.67;;;15.20;99.90;;;;;;5070275;28;20020;-52
2023/03/30 12:47:08;;;;;;;6.57;1.70;;;14.90;99.90;;;;;;5070777;28;20477;-53
2023/03/30 12:50:11;;;;;;;5.80;1.50;;;14.70;99.90;;;;;;5070859;28;20370;-53
2023/03/30 12:52:42;;;;;;;6.38;1.60;;;14.50;99.90;;;;;;5070815;28;20044;-50
2023/03/30 12:55:26;;;;;;;9.52;1.98;;;14.10;99.90;;;;;;5070565;28;20410;-52
2023/03/30 12:58:03;;;;;;;8.15;1.55;;;13.90;99.90;;;;;;5070579;28;20037;-52
2023/03/30 13:00:46;;;;;;;6.93;2.00;;;13.40;99.90;;;;;;5070704;28;20489;-51
2023/03/30 13:03:38;;;;;;;13.30;3.33;;;13.10;99.90;;;;;;5077243;22;20679;-47
2023/03/30 13:06:13;;;;;;;14.02;5.25;;;12.80;99.90;;;;;;5031007;28;20037;-51
2023/03/30 13:08:40;;;;;;;9.98;2.35;;;12.70;99.90;;;;;;5030633;28;20083;-51
2023/03/30 13:11:16;;;;;;;9.40;1.70;;;12.80;99.90;;;;;;5030493;28;20033;-49
2023/03/30 13:13:47;;;;;;;7.65;2.00;;;13.20;99.90;;;;;;5029081;28;20131;-49
2023/03/30 13:16:13;;;;;;;6.90;1.58;;;13.60;99.90;;;;;;5030399;28;20029;-46
2023/03/30 13:19:08;;;;;;;7.25;1.90;;;13.90;99.90;;;;;;5029944;28;20040;-46
2023/03/30 13:21:47;;;;;;;4.68;1.48;;;14.30;99.90;;;;;;5030419;28;20034;-45
2023/03/30 13:24:29;;;;;;;4.07;1.00;;;14.60;99.90;;;;;;5030162;28;20037;-48
2023/03/30 13:27:18;;;;;;;8.77;1.70;;;14.80;99.90;;;;;;5029844;28;20037;-43
2023/03/30 13:30:08;;;;;;;8.65;1.50;;;15.00;99.90;;;;;;5030187;28;20038;-44
2023/03/30 13:33:15;;;;;;;4.60;1.27;;;15.20;99.90;;;;;;5029995;28;20034;-44